createdAt,value
2018-03-22T00:00:02.083Z,5.65
2018-03-22T00:00:42.530Z,5.66
2018-03-22T00:01:22.926Z,5.69
2018-03-22T00:02:03.352Z,5.69
2018-03-22T00:02:43.743Z,5.66
2018-03-22T00:03:24.115Z,5.67
2018-03-22T00:04:04.526Z,5.69
2018-03-22T00:04:44.956Z,5.59
2018-03-22T00:05:25.301Z,5.6
2018-03-22T00:06:05.706Z,5.59
2018-03-22T00:06:46.113Z,5.62
2018-03-22T00:07:26.540Z,5.6
2018-03-22T00:08:06.949Z,5.6
2018-03-22T00:08:47.318Z,5.55
2018-03-22T00:09:27.714Z,5.44
2018-03-22T00:10:08.115Z,5.58
2018-03-22T00:10:48.478Z,5.47
2018-03-22T00:11:28.921Z,5.45
2018-03-22T00:12:09.321Z,5.48
2018-03-22T00:12:49.689Z,5.44
2018-03-22T00:13:30.119Z,5.48
2018-03-22T00:14:10.515Z,5.42
2018-03-22T00:14:50.877Z,5.47
2018-03-22T00:15:31.323Z,5.45
2018-03-22T00:16:11.720Z,5.48
2018-03-22T00:16:52.092Z,5.49
2018-03-22T00:17:32.485Z,5.62
2018-03-22T00:18:12.898Z,5.6
2018-03-22T00:18:53.307Z,5.6
2018-03-22T00:19:33.710Z,5.7
2018-03-22T00:20:14.145Z,5.66
2018-03-22T00:20:54.565Z,5.7
2018-03-22T00:21:34.967Z,5.78
2018-03-22T00:22:15.353Z,5.81
2018-03-22T00:22:55.755Z,5.77
2018-03-22T00:23:36.127Z,5.75
2018-03-22T00:24:16.538Z,5.62
2018-03-22T00:24:56.923Z,5.7
2018-03-22T00:25:37.304Z,5.62
2018-03-22T00:26:17.686Z,5.56
2018-03-22T00:26:58.048Z,5.58
2018-03-22T00:27:38.528Z,5.56
2018-03-22T00:28:18.896Z,5.49
2018-03-22T00:28:59.290Z,5.58
2018-03-22T00:29:39.737Z,5.49
2018-03-22T00:30:20.151Z,5.52
2018-03-22T00:31:00.531Z,5.52
2018-03-22T00:31:40.923Z,5.56
2018-03-22T00:32:21.344Z,5.58
2018-03-22T00:33:01.715Z,5.58
2018-03-22T00:33:42.107Z,5.55
2018-03-22T00:34:22.507Z,5.56
2018-03-22T00:35:02.891Z,5.48
2018-03-22T00:35:43.313Z,5.59
2018-03-22T00:40:36.055Z,5.59
2018-03-22T00:41:16.373Z,5.6
2018-03-22T00:41:56.763Z,5.6
2018-03-22T00:42:37.166Z,5.56
2018-03-22T00:43:17.630Z,5.62
2018-03-22T00:43:58.007Z,5.62
2018-03-22T00:44:38.435Z,5.52
2018-03-22T00:45:18.778Z,5.49
2018-03-22T00:45:59.197Z,5.59
2018-03-22T00:46:39.589Z,5.51
2018-03-22T00:47:19.961Z,5.56
2018-03-22T00:48:00.374Z,5.51
2018-03-22T00:48:40.772Z,5.56
2018-03-22T00:49:21.176Z,5.58
2018-03-22T00:50:01.662Z,5.55
2018-03-22T00:50:42.026Z,5.62
2018-03-22T00:51:22.445Z,5.56
2018-03-22T00:52:02.810Z,5.47
2018-03-22T00:55:12.958Z,5.51
2018-03-22T00:55:53.314Z,5.58
2018-03-22T00:56:33.739Z,5.49
2018-03-22T00:57:14.160Z,5.58
2018-03-22T00:57:54.558Z,5.55
2018-03-22T00:58:34.934Z,5.58
2018-03-22T00:59:15.351Z,5.4
2018-03-22T00:59:55.734Z,5.52
2018-03-22T01:00:36.131Z,5.48
2018-03-22T01:01:16.520Z,5.51
2018-03-22T01:01:56.889Z,5.58
2018-03-22T01:02:37.300Z,5.52
2018-03-22T01:03:17.655Z,5.47
2018-03-22T01:03:58.041Z,5.55
2018-03-22T01:04:38.489Z,5.58
2018-03-22T01:05:18.865Z,5.6
2018-03-22T01:05:59.279Z,5.6
2018-03-22T01:06:39.647Z,5.62
2018-03-22T01:07:20.074Z,5.56
2018-03-22T01:08:00.517Z,5.59
2018-03-22T01:08:40.951Z,5.49
2018-03-22T01:09:21.274Z,5.59
2018-03-22T01:10:01.722Z,5.62
2018-03-22T01:10:42.139Z,5.62
2018-03-22T01:11:22.510Z,5.58
2018-03-22T01:12:02.892Z,5.6
2018-03-22T01:12:43.307Z,5.58
2018-03-22T01:13:23.720Z,5.67
2018-03-22T01:14:04.092Z,5.65
2018-03-22T01:14:44.497Z,5.69
2018-03-22T01:15:24.927Z,5.69
2018-03-22T01:16:05.300Z,5.73
2018-03-22T01:16:45.733Z,5.78
2018-03-22T01:17:26.109Z,5.83
2018-03-22T01:18:06.494Z,5.85
2018-03-22T01:18:46.901Z,5.87
2018-03-22T01:19:27.321Z,5.96
2018-03-22T01:20:07.748Z,5.92
2018-03-22T01:20:48.180Z,6.03
2018-03-22T01:21:28.543Z,6.02
2018-03-22T01:22:08.923Z,5.98
2018-03-22T01:22:49.317Z,6.05
2018-03-22T01:23:29.720Z,6.02
2018-03-22T01:24:10.092Z,6.14
2018-03-22T01:24:50.510Z,6.05
2018-03-22T01:25:30.930Z,6.08
2018-03-22T01:26:11.323Z,6.17
2018-03-22T01:26:51.694Z,6.02
2018-03-22T01:27:32.106Z,6.01
2018-03-22T01:28:12.487Z,6.06
2018-03-22T01:28:52.974Z,6.05
2018-03-22T01:29:33.332Z,5.99
2018-03-22T01:30:13.735Z,6.01
2018-03-22T01:30:54.165Z,5.98
2018-03-22T01:31:34.543Z,6.06
2018-03-22T01:32:14.899Z,6.14
2018-03-22T01:32:55.315Z,6.13
2018-03-22T01:33:35.721Z,6.05
2018-03-22T01:34:16.108Z,6.17
2018-03-22T01:34:56.488Z,6.08
2018-03-22T01:35:36.870Z,6.05
2018-03-22T01:36:17.305Z,6.16
2018-03-22T01:36:57.735Z,6.1
2018-03-22T01:37:38.115Z,6.2
2018-03-22T01:38:18.514Z,6.1
2018-03-22T01:38:58.894Z,6.17
2018-03-22T01:39:39.319Z,6.05
2018-03-22T01:40:19.696Z,6.2
2018-03-22T01:41:00.139Z,6.24
2018-03-22T01:41:40.533Z,6.1
2018-03-22T01:42:20.929Z,6.16
2018-03-22T01:43:01.332Z,6.2
2018-03-22T01:43:41.714Z,6.2
2018-03-22T01:44:22.135Z,6.3
2018-03-22T01:45:02.531Z,6.24
2018-03-22T01:45:42.942Z,6.27
2018-03-22T01:46:23.322Z,6.33
2018-03-22T01:47:03.731Z,6.24
2018-03-22T01:47:44.121Z,6.4
2018-03-22T01:48:24.471Z,6.42
2018-03-22T01:49:04.829Z,6.42
2018-03-22T01:49:45.255Z,6.51
2018-03-22T01:50:25.661Z,6.53
2018-03-22T01:51:06.054Z,6.58
2018-03-22T01:53:03.952Z,6.76
2018-03-22T01:53:44.328Z,6.61
2018-03-22T01:54:24.760Z,6.64
2018-03-22T01:55:05.151Z,6.68
2018-03-22T01:55:45.549Z,6.81
2018-03-22T01:56:25.918Z,6.86
2018-03-22T01:57:06.390Z,6.91
2018-03-22T01:57:46.707Z,6.83
2018-03-22T01:58:27.108Z,6.87
2018-03-22T01:59:07.492Z,6.97
2018-03-22T01:59:47.882Z,7
2018-03-22T02:00:28.274Z,7.04
2018-03-22T02:01:08.674Z,6.96
2018-03-22T02:01:49.166Z,6.97
2018-03-22T02:02:29.477Z,7
2018-03-22T02:03:09.869Z,7.09
2018-03-22T02:03:50.260Z,7.18
2018-03-22T02:04:30.622Z,7.14
2018-03-22T02:05:11.036Z,7.14
2018-03-22T02:05:51.419Z,7.15
2018-03-22T02:06:31.833Z,7.12
2018-03-22T02:07:12.257Z,7.16
2018-03-22T02:07:52.667Z,7.21
2018-03-22T02:08:33.088Z,7.21
2018-03-22T02:09:13.442Z,7.18
2018-03-22T02:09:53.863Z,7.11
2018-03-22T02:10:34.278Z,7.27
2018-03-22T02:11:14.646Z,7.33
2018-03-22T02:11:55.054Z,7.34
2018-03-22T02:12:35.441Z,7.36
2018-03-22T02:13:15.873Z,7.32
2018-03-22T02:13:56.221Z,7.36
2018-03-22T02:14:36.644Z,7.3
2018-03-22T02:15:17.043Z,7.26
2018-03-22T02:15:57.460Z,7.26
2018-03-22T02:16:37.816Z,7.24
2018-03-22T02:17:18.197Z,7.24
2018-03-22T02:17:58.550Z,7.23
2018-03-22T02:18:38.950Z,7.18
2018-03-22T02:19:19.380Z,7.21
2018-03-22T02:19:59.806Z,7.23
2018-03-22T02:20:40.182Z,7.34
2018-03-22T02:21:20.598Z,7.27
2018-03-22T02:22:00.979Z,7.26
2018-03-22T02:22:41.389Z,7.21
2018-03-22T02:23:21.781Z,7.39
2018-03-22T02:24:02.184Z,7.41
2018-03-22T02:24:42.575Z,7.37
2018-03-22T02:25:22.959Z,7.5
2018-03-22T02:26:03.365Z,7.34
2018-03-22T02:26:43.772Z,7.34
2018-03-22T02:27:24.216Z,7.41
2018-03-22T02:28:04.683Z,7.34
2018-03-22T02:28:45.058Z,7.37
2018-03-22T02:30:42.982Z,7.55
2018-03-22T02:31:23.373Z,7.57
2018-03-22T02:32:03.750Z,7.63
2018-03-22T02:32:44.150Z,7.57
2018-03-22T02:33:24.548Z,7.57
2018-03-22T02:34:04.979Z,7.57
2018-03-22T02:34:45.389Z,7.47
2018-03-22T02:35:25.742Z,7.47
2018-03-22T02:36:06.158Z,7.45
2018-03-22T02:36:46.554Z,7.45
2018-03-22T02:37:26.994Z,7.45
2018-03-22T02:38:07.356Z,7.48
2018-03-22T02:38:47.782Z,7.48
2018-03-22T02:39:28.170Z,7.51
2018-03-22T02:40:08.626Z,7.36
2018-03-22T02:40:48.994Z,7.48
2018-03-22T02:41:29.414Z,7.34
2018-03-22T02:42:09.812Z,7.54
2018-03-22T02:42:50.192Z,7.58
2018-03-22T02:43:30.604Z,7.58
2018-03-22T02:44:10.985Z,7.52
2018-03-22T02:44:51.377Z,7.7
2018-03-22T02:45:31.782Z,7.52
2018-03-22T02:46:12.239Z,7.67
2018-03-22T02:46:52.611Z,7.6
2018-03-22T02:47:32.975Z,7.6
2018-03-22T02:48:13.425Z,7.55
2018-03-22T02:48:53.776Z,7.58
2018-03-22T02:49:34.157Z,7.63
2018-03-22T02:50:14.551Z,7.62
2018-03-22T02:50:54.970Z,7.57
2018-03-22T02:51:35.351Z,7.55
2018-03-22T02:52:15.757Z,7.52
2018-03-22T02:52:56.160Z,7.45
2018-03-22T02:53:36.577Z,7.62
2018-03-22T02:54:16.985Z,7.58
2018-03-22T02:54:57.442Z,7.51
2018-03-22T02:55:37.795Z,7.62
2018-03-22T02:56:18.219Z,7.51
2018-03-22T02:56:58.623Z,7.55
2018-03-22T02:57:38.972Z,7.6
2018-03-22T02:58:19.401Z,7.54
2018-03-22T02:58:59.773Z,7.6
2018-03-22T02:59:40.162Z,7.54
2018-03-22T03:00:20.574Z,7.57
2018-03-22T03:01:01.002Z,7.55
2018-03-22T03:01:41.389Z,7.57
2018-03-22T03:02:21.834Z,7.6
2018-03-22T03:03:02.255Z,7.67
2018-03-22T03:03:42.636Z,7.66
2018-03-22T03:04:23.055Z,7.69
2018-03-22T03:05:03.472Z,7.67
2018-03-22T03:05:43.863Z,7.63
2018-03-22T03:06:24.252Z,7.81
2018-03-22T03:07:04.616Z,7.82
2018-03-22T03:07:45.049Z,7.73
2018-03-22T03:08:25.426Z,7.71
2018-03-22T03:09:05.845Z,7.73
2018-03-22T03:09:46.255Z,7.79
2018-03-22T03:10:26.620Z,7.81
2018-03-22T03:11:07.016Z,7.82
2018-03-22T03:11:47.432Z,7.96
2018-03-22T03:12:27.844Z,8.07
2018-03-22T03:13:08.264Z,8.06
2018-03-22T03:13:48.676Z,8.12
2018-03-22T03:14:29.019Z,8.18
2018-03-22T03:15:09.455Z,8.27
2018-03-22T03:15:49.801Z,8.29
2018-03-22T03:16:30.253Z,8.34
2018-03-22T03:17:10.655Z,8.37
2018-03-22T03:17:51.093Z,8.37
2018-03-22T03:18:31.487Z,8.32
2018-03-22T03:19:11.893Z,8.28
2018-03-22T03:19:52.288Z,8.28
2018-03-22T03:20:32.699Z,8.28
2018-03-22T03:21:13.078Z,8.36
2018-03-22T03:21:53.527Z,8.28
2018-03-22T03:22:33.904Z,8.39
2018-03-22T03:23:14.353Z,8.32
2018-03-22T03:23:54.803Z,8.36
2018-03-22T03:24:35.175Z,8.29
2018-03-22T03:25:15.613Z,8.36
2018-03-22T03:25:55.986Z,8.42
2018-03-22T03:26:36.449Z,8.47
2018-03-22T03:27:16.846Z,8.61
2018-03-22T03:27:57.214Z,8.57
2018-03-22T03:28:37.627Z,8.67
2018-03-22T03:29:17.995Z,8.76
2018-03-22T03:29:58.432Z,8.64
2018-03-22T03:30:38.859Z,8.68
2018-03-22T03:31:19.258Z,8.6
2018-03-22T03:31:59.629Z,8.57
2018-03-22T03:32:40.037Z,8.61
2018-03-22T03:33:20.461Z,8.45
2018-03-22T03:34:00.872Z,8.4
2018-03-22T03:34:41.265Z,8.4
2018-03-22T03:35:21.624Z,8.42
2018-03-22T03:36:02.056Z,8.43
2018-03-22T03:36:42.492Z,8.5
2018-03-22T03:37:22.861Z,8.63
2018-03-22T03:38:03.271Z,8.57
2018-03-22T03:38:43.654Z,8.49
2018-03-22T03:39:24.050Z,8.49
2018-03-22T03:40:04.417Z,8.58
2018-03-22T03:40:44.820Z,8.55
2018-03-22T03:41:25.291Z,8.64
2018-03-22T03:42:05.661Z,8.64
2018-03-22T03:42:46.007Z,8.54
2018-03-22T03:43:26.410Z,8.65
2018-03-22T03:44:06.817Z,8.76
2018-03-22T03:44:47.264Z,8.68
2018-03-22T03:45:27.625Z,8.73
2018-03-22T03:46:08.025Z,8.71
2018-03-22T03:46:48.380Z,8.67
2018-03-22T03:47:28.782Z,8.67
2018-03-22T03:48:09.232Z,8.65
2018-03-22T03:48:49.577Z,8.57
2018-03-22T03:49:30.002Z,8.57
2018-03-22T03:50:10.423Z,8.47
2018-03-22T03:51:58.170Z,8.64
2018-03-22T03:52:38.583Z,8.6
2018-03-22T03:53:18.974Z,8.46
2018-03-22T03:53:59.398Z,8.55
2018-03-22T03:54:39.810Z,8.47
2018-03-22T03:55:20.150Z,8.54
2018-03-22T03:56:00.583Z,8.47
2018-03-22T03:56:40.967Z,8.46
2018-03-22T03:57:21.424Z,8.42
2018-03-22T03:58:01.779Z,8.45
2018-03-22T03:58:42.142Z,8.39
2018-03-22T03:59:22.544Z,8.39
2018-03-22T04:00:02.949Z,8.55
2018-03-22T04:00:43.373Z,8.54
2018-03-22T04:01:23.761Z,8.5
2018-03-22T04:02:04.202Z,8.42
2018-03-22T04:02:44.565Z,8.27
2018-03-22T04:03:24.974Z,8.36
2018-03-22T04:04:05.415Z,8.29
2018-03-22T04:04:45.766Z,8.27
2018-03-22T04:05:26.190Z,8.25
2018-03-22T04:06:06.553Z,8.25
2018-03-22T04:06:46.925Z,8.21
2018-03-22T04:51:18.181Z,7.79
2018-03-22T04:51:58.569Z,7.74
2018-03-22T04:52:38.950Z,7.73
2018-03-22T04:53:19.323Z,7.74
2018-03-22T04:53:59.757Z,7.69
2018-03-22T04:54:40.182Z,7.62
2018-03-22T04:55:20.557Z,7.62
2018-03-22T04:56:00.960Z,7.63
2018-03-22T04:56:41.352Z,7.67
2018-03-22T04:57:21.730Z,7.76
2018-03-22T04:58:02.148Z,7.71
2018-03-22T04:58:42.520Z,7.57
2018-03-22T04:59:22.966Z,7.55
2018-03-22T05:00:03.368Z,7.63
2018-03-22T05:00:43.800Z,7.6
2018-03-22T05:01:24.163Z,7.6
2018-03-22T05:02:04.624Z,7.52
2018-03-22T05:02:45.026Z,7.62
2018-03-22T05:03:25.404Z,7.6
2018-03-22T05:04:05.821Z,7.62
2018-03-22T05:04:46.276Z,7.69
2018-03-22T05:05:26.648Z,7.7
2018-03-22T05:06:07.094Z,7.76
2018-03-22T05:06:47.480Z,7.82
2018-03-22T05:07:27.891Z,7.82
2018-03-22T05:08:08.282Z,7.82
2018-03-22T05:08:48.715Z,7.94
2018-03-22T05:09:29.135Z,7.94
2018-03-22T05:10:09.500Z,7.96
2018-03-22T05:10:49.920Z,8.03
2018-03-22T05:11:30.316Z,7.99
2018-03-22T05:12:10.738Z,8
2018-03-22T05:12:51.119Z,8.09
2018-03-22T05:13:31.530Z,7.99
2018-03-22T05:14:11.905Z,8.04
2018-03-22T05:14:52.269Z,7.95
2018-03-22T05:15:32.730Z,7.82
2018-03-22T05:16:13.100Z,7.94
2018-03-22T05:16:53.476Z,7.96
2018-03-22T05:17:33.879Z,7.99
2018-03-22T05:18:14.289Z,8.1
2018-03-22T05:18:54.706Z,8.1
2018-03-22T05:19:35.134Z,7.99
2018-03-22T05:20:15.533Z,7.95
2018-03-22T05:20:55.938Z,7.99
2018-03-22T05:21:36.334Z,7.95
2018-03-22T05:22:16.715Z,7.96
2018-03-22T05:22:57.571Z,7.91
2018-03-22T05:23:38.006Z,7.95
2018-03-22T05:24:18.395Z,8.13
2018-03-22T05:24:58.819Z,8.31
2018-03-22T05:25:39.172Z,8.29
2018-03-22T05:26:19.647Z,8.39
2018-03-22T05:27:00.026Z,8.39
2018-03-22T05:27:40.428Z,8.52
2018-03-22T05:28:20.903Z,8.58
2018-03-22T05:29:08.193Z,8.52
2018-03-22T05:29:48.626Z,8.52
2018-03-22T05:30:29.017Z,8.49
2018-03-22T05:31:09.474Z,8.63
2018-03-22T05:31:49.864Z,8.46
2018-03-22T05:32:30.238Z,8.52
2018-03-22T05:33:10.619Z,8.54
2018-03-22T05:33:51.018Z,8.5
2018-03-22T05:34:31.445Z,8.6
2018-03-22T05:35:11.846Z,8.47
2018-03-22T05:35:52.254Z,8.45
2018-03-22T05:36:32.633Z,8.42
2018-03-22T05:37:13.060Z,8.31
2018-03-22T05:37:53.493Z,8.31
2018-03-22T05:38:33.838Z,8.32
2018-03-22T05:39:14.269Z,8.28
2018-03-22T05:39:54.699Z,8.22
2018-03-22T05:40:35.104Z,8.25
2018-03-22T05:41:15.494Z,8.28
2018-03-22T05:41:55.882Z,8.29
2018-03-22T05:42:36.328Z,8.37
2018-03-22T05:43:16.752Z,8.4
2018-03-22T05:43:57.093Z,8.34
2018-03-22T05:44:37.508Z,8.39
2018-03-22T05:45:17.985Z,8.34
2018-03-22T05:45:58.355Z,8.37
2018-03-22T05:46:38.763Z,8.36
2018-03-22T05:47:19.150Z,8.27
2018-03-22T05:47:59.552Z,8.22
2018-03-22T05:48:39.957Z,7.94
2018-03-22T05:49:20.347Z,7.92
2018-03-22T05:50:00.811Z,7.82
2018-03-22T05:50:41.174Z,7.84
2018-03-22T05:51:21.578Z,7.69
2018-03-22T05:52:01.966Z,7.6
2018-03-22T05:52:42.369Z,7.55
2018-03-22T05:53:22.804Z,7.54
2018-03-22T05:54:03.210Z,7.63
2018-03-22T05:54:43.605Z,7.7
2018-03-22T05:55:24.036Z,7.66
2018-03-22T05:56:04.485Z,7.62
2018-03-22T05:56:44.897Z,7.7
2018-03-22T05:57:25.349Z,7.71
2018-03-22T05:58:05.724Z,7.79
2018-03-22T05:58:46.148Z,7.79
2018-03-22T05:59:26.576Z,7.79
2018-03-22T06:00:06.984Z,7.82
2018-03-22T06:00:47.388Z,7.73
2018-03-22T06:01:27.809Z,7.84
2018-03-22T06:02:08.178Z,7.67
2018-03-22T06:02:48.567Z,7.71
2018-03-22T06:03:28.977Z,7.6
2018-03-22T06:04:09.378Z,7.62
2018-03-22T06:04:49.770Z,7.62
2018-03-22T06:05:30.179Z,7.51
2018-03-22T06:06:10.562Z,7.52
2018-03-22T06:06:50.922Z,7.44
2018-03-22T06:07:31.403Z,7.51
2018-03-22T06:08:11.800Z,7.67
2018-03-22T06:08:52.223Z,7.71
2018-03-22T06:09:32.604Z,7.63
2018-03-22T06:10:13.067Z,7.62
2018-03-22T06:10:53.456Z,7.58
2018-03-22T06:11:33.897Z,7.58
2018-03-22T06:12:14.294Z,7.63
2018-03-22T06:12:54.678Z,7.6
2018-03-22T06:13:35.177Z,7.63
2018-03-22T06:14:15.612Z,7.62
2018-03-22T06:14:55.972Z,7.55
2018-03-22T06:15:36.518Z,7.55
2018-03-22T06:16:16.934Z,7.57
2018-03-22T06:16:57.296Z,7.57
2018-03-22T06:17:37.723Z,7.55
2018-03-22T06:18:18.095Z,7.44
2018-03-22T06:18:58.533Z,7.48
2018-03-22T06:19:38.994Z,7.5
2018-03-22T06:20:19.345Z,7.37
2018-03-22T06:20:59.800Z,7.45
2018-03-22T06:21:40.365Z,7.48
2018-03-22T06:22:20.756Z,7.48
2018-03-22T06:23:01.188Z,7.36
2018-03-22T06:23:41.675Z,7.37
2018-03-22T06:24:22.047Z,7.5
2018-03-22T06:25:03.234Z,7.41
2018-03-22T06:25:43.698Z,7.33
2018-03-22T06:26:24.015Z,7.3
2018-03-22T06:27:04.525Z,7.19
2018-03-22T06:27:44.944Z,7.18
2018-03-22T06:28:25.321Z,7.19
2018-03-22T06:29:05.782Z,7.19
2018-03-22T06:29:46.157Z,7.14
2018-03-22T06:30:26.583Z,7.16
2018-03-22T06:31:06.968Z,7.32
2018-03-22T06:31:47.374Z,7.34
2018-03-22T06:32:28.011Z,7.3
2018-03-22T06:33:08.505Z,7.33
2018-03-22T06:33:49.571Z,7.26
2018-03-22T06:34:30.540Z,7.33
2018-03-22T06:35:10.690Z,7.34
2018-03-22T06:37:30.649Z,7.44
2018-03-22T06:38:13.301Z,7.48
2018-03-22T06:38:53.663Z,7.3
2018-03-22T06:39:34.126Z,7.16
2018-03-22T06:40:14.497Z,7.12
2018-03-22T06:40:55.693Z,7.05
2018-03-22T06:41:36.835Z,6.94
2018-03-22T06:42:21.251Z,6.82
2018-03-22T06:43:04.208Z,6.91
2018-03-22T06:43:44.963Z,6.82
2018-03-22T06:44:25.399Z,6.96
2018-03-22T06:45:05.825Z,7.07
2018-03-22T06:45:47.334Z,7.14
2018-03-22T06:46:29.123Z,7.01
2018-03-22T06:47:11.420Z,7.11
2018-03-22T06:47:55.110Z,7.12
2018-03-22T06:48:40.230Z,7.05
2018-03-22T06:49:28.139Z,6.76
2018-03-22T06:50:08.906Z,6.78
2018-03-22T06:50:50.244Z,6.69
2018-03-22T06:51:33.259Z,6.9
2018-03-22T06:52:13.776Z,6.89
2018-03-22T06:52:54.395Z,6.93
2018-03-22T06:53:35.390Z,6.91
2018-03-22T06:54:17.368Z,7.04
2018-03-22T06:54:58.616Z,7.08
2018-03-22T06:55:41.254Z,7.07
2018-03-22T06:56:23.245Z,7.12
2018-03-22T06:57:03.933Z,7.18
2018-03-22T06:57:45.630Z,7.12
2018-03-22T06:58:26.574Z,7.11
2018-03-22T06:59:07.252Z,7.08
2018-03-22T06:59:47.522Z,7.01
2018-03-22T07:00:28.914Z,7.08
2018-03-22T07:01:09.760Z,7.01
2018-03-22T07:01:50.815Z,6.89
2018-03-22T07:02:32.375Z,6.87
2018-03-22T07:03:13.927Z,6.91
2018-03-22T07:03:55.142Z,7.01
2018-03-22T07:04:35.774Z,7.04
2018-03-22T07:05:17.367Z,7.04
2018-03-22T07:05:57.996Z,7.18
2018-03-22T07:06:38.650Z,7.18
2018-03-22T07:07:20.163Z,7.15
2018-03-22T07:08:01.484Z,7.09
2018-03-22T07:08:45.331Z,7.07
2018-03-22T07:09:25.846Z,7.04
2018-03-22T07:10:07.297Z,7.08
2018-03-22T07:10:48.066Z,7.11
2018-03-22T07:11:29.062Z,7.04
2018-03-22T07:12:09.352Z,7.01
2018-03-22T07:12:52.376Z,7.05
2018-03-22T07:13:33.402Z,7.08
2018-03-22T07:14:14.687Z,7.14
2018-03-22T07:14:55.460Z,7.14
2018-03-22T07:15:35.849Z,7.3
2018-03-22T07:16:17.771Z,7.26
2018-03-22T07:16:59.665Z,7.18
2018-03-22T07:17:40.052Z,7.14
2018-03-22T07:18:20.519Z,7.24
2018-03-22T07:19:01.675Z,7.05
2018-03-22T07:19:43.087Z,7.05
2018-03-22T07:20:25.373Z,7
2018-03-22T07:21:06.785Z,6.96
2018-03-22T07:21:47.613Z,6.94
2018-03-22T07:22:27.987Z,6.94
2018-03-22T07:23:11.522Z,6.91
2018-03-22T07:23:52.392Z,7.01
2018-03-22T07:24:35.502Z,7.09
2018-03-22T07:25:16.277Z,7.11
2018-03-22T07:25:56.702Z,7.08
2018-03-22T07:26:38.659Z,6.91
2018-03-22T07:27:19.591Z,6.93
2018-03-22T07:28:10.863Z,7.04
2018-03-22T07:28:51.299Z,6.99
2018-03-22T07:29:33.673Z,6.94
2018-03-22T07:30:14.018Z,6.93
2018-03-22T07:30:55.112Z,6.83
2018-03-22T07:31:37.591Z,6.87
2018-03-22T07:32:19.489Z,6.91
2018-03-22T07:33:00.445Z,6.86
2018-03-22T07:33:40.730Z,7.04
2018-03-22T07:34:22.072Z,7.08
2018-03-22T07:35:03.191Z,7.11
2018-03-22T07:35:44.047Z,7.04
2018-03-22T07:36:25.586Z,7.12
2018-03-22T07:37:05.882Z,7.09
2018-03-22T07:37:47.132Z,7.09
2018-03-22T07:38:27.833Z,7.14
2018-03-22T07:39:09.946Z,7.14
2018-03-22T07:39:51.601Z,7.15
2018-03-22T07:40:33.223Z,7.18
2018-03-22T07:41:14.604Z,7.15
2018-03-22T07:41:54.329Z,7.08
2018-03-22T07:42:35.214Z,6.96
2018-03-22T07:43:15.517Z,6.97
2018-03-22T07:44:08.597Z,7.09
2018-03-22T07:44:50.229Z,7.15
2018-03-22T07:45:32.574Z,7.14
2018-03-22T07:46:16.771Z,7.14
2018-03-22T07:46:57.426Z,7.11
2018-03-22T07:47:39.076Z,7.14
2018-03-22T07:48:22.535Z,7.04
2018-03-22T07:49:02.257Z,7.04
2018-03-22T07:49:44.549Z,6.94
2018-03-22T07:50:28.365Z,6.9
2018-03-22T07:51:09.750Z,7.04
2018-03-22T07:51:51.075Z,6.94
2018-03-22T07:52:31.203Z,6.93
2018-03-22T07:53:13.712Z,6.93
2018-03-22T07:53:55.494Z,6.89
2018-03-22T07:54:36.290Z,6.83
2018-03-22T07:55:17.749Z,6.83
2018-03-22T07:55:59.176Z,6.86
2018-03-22T07:56:41.234Z,6.89
2018-03-22T07:57:22.309Z,7.18
2018-03-22T07:58:02.713Z,7.11
2018-03-22T07:58:43.431Z,7.16
2018-03-22T07:59:24.301Z,7.14
2018-03-22T08:00:04.982Z,7.19
2018-03-22T08:00:45.642Z,7.21
2018-03-22T08:07:41.381Z,7.36
2018-03-22T08:08:24.536Z,7.41
2018-03-22T08:09:05.813Z,7.57
2018-03-22T08:09:46.788Z,7.48
2018-03-22T08:10:27.907Z,7.5
2018-03-22T08:11:08.346Z,7.58
2018-03-22T08:11:51.127Z,7.52
2018-03-22T08:12:32.234Z,7.51
2018-03-22T08:13:12.750Z,7.55
2018-03-22T08:13:53.417Z,7.47
2018-03-22T08:14:33.983Z,7.55
2018-03-22T08:15:14.652Z,7.47
2018-03-22T08:15:56.297Z,7.36
2018-03-22T08:16:36.656Z,7.36
2018-03-22T08:17:17.053Z,7.36
2018-03-22T08:17:57.691Z,7.5
2018-03-22T08:18:38.337Z,7.45
2018-03-22T08:19:20.179Z,7.48
2018-03-22T08:20:00.549Z,7.55
2018-03-22T08:20:41.059Z,7.6
2018-03-22T08:21:21.850Z,7.63
2018-03-22T08:22:02.310Z,7.66
2018-03-22T08:22:42.949Z,7.71
2018-03-22T08:23:23.335Z,7.67
2018-03-22T08:24:04.687Z,7.71
2018-03-22T08:24:45.883Z,7.76
2018-03-22T08:25:26.548Z,7.62
2018-03-22T08:26:07.199Z,7.62
2018-03-22T08:26:47.835Z,7.6
2018-03-22T08:27:27.920Z,7.57
2018-03-22T08:28:11.105Z,7.62
2018-03-22T08:28:51.567Z,7.67
2018-03-22T08:29:32.042Z,7.74
2018-03-22T08:30:13.004Z,7.71
2018-03-22T08:30:53.467Z,7.74
2018-03-22T08:31:34.557Z,7.81
2018-03-22T08:32:14.976Z,7.84
2018-03-22T08:32:55.350Z,7.82
2018-03-22T08:33:36.516Z,7.92
2018-03-22T08:34:17.933Z,7.84
2018-03-22T08:34:59.783Z,7.82
2018-03-22T08:35:41.981Z,7.81
2018-03-22T08:36:22.402Z,7.84
2018-03-22T08:37:02.922Z,7.82
2018-03-22T08:37:43.179Z,7.91
2018-03-22T08:38:24.613Z,7.86
2018-03-22T08:39:05.995Z,7.95
2018-03-22T08:39:46.560Z,7.92
2018-03-22T08:40:26.950Z,7.89
2018-03-22T08:41:07.894Z,7.94
2018-03-22T08:41:47.907Z,7.92
2018-03-22T08:42:28.571Z,7.92
2018-03-22T08:43:09.022Z,7.89
2018-03-22T08:43:50.270Z,8.04
2018-03-22T08:44:30.564Z,8.07
2018-03-22T08:45:13.686Z,8.12
2018-03-22T08:45:54.146Z,8.13
2018-03-22T08:46:34.537Z,8.2
2018-03-22T08:47:15.095Z,8.13
2018-03-22T08:47:56.705Z,8.07
2018-03-22T08:48:37.138Z,8.17
2018-03-22T08:49:17.520Z,8.22
2018-03-22T08:50:00.816Z,8.21
2018-03-22T08:50:42.331Z,8.28
2018-03-22T08:51:23.076Z,8.28
2018-03-22T08:52:03.421Z,8.29
2018-03-22T08:52:43.808Z,8.37
2018-03-22T08:53:24.965Z,8.31
2018-03-22T08:54:05.430Z,8.17
2018-03-22T08:54:45.807Z,8.22
2018-03-22T08:55:26.206Z,8.2
2018-03-22T08:56:07.656Z,8.29
2018-03-22T08:56:48.052Z,8.13
2018-03-22T08:57:28.484Z,8.06
2018-03-22T08:58:09.626Z,8.13
2018-03-22T08:58:50.077Z,8.2
2018-03-22T08:59:31.248Z,8.14
2018-03-22T09:00:12.620Z,8.02
2018-03-22T09:00:53.482Z,7.96
2018-03-22T09:01:33.870Z,7.95
2018-03-22T09:02:15.188Z,7.91
2018-03-22T09:02:57.165Z,7.84
2018-03-22T09:03:37.533Z,7.94
2018-03-22T09:04:18.049Z,7.95
2018-03-22T09:04:58.480Z,8.02
2018-03-22T09:05:40.174Z,8.06
2018-03-22T09:06:20.573Z,8.13
2018-03-22T09:07:01.079Z,8.14
2018-03-22T09:07:41.638Z,8.13
2018-03-22T09:08:22.021Z,8.2
2018-03-22T09:09:05.161Z,8.22
2018-03-22T09:09:46.502Z,8.29
2018-03-22T09:10:26.836Z,8.32
2018-03-22T09:11:07.291Z,8.32
2018-03-22T09:11:48.793Z,8.31
2018-03-22T09:12:29.257Z,8.32
2018-03-22T09:13:09.729Z,8.29
2018-03-22T09:13:50.774Z,8.32
2018-03-22T09:14:31.147Z,8.25
2018-03-22T09:15:11.590Z,8.24
2018-03-22T09:15:51.990Z,8.25
2018-03-22T09:16:32.401Z,8.29
2018-03-22T09:17:12.847Z,8.31
2018-03-22T09:17:53.402Z,8.4
2018-03-22T09:18:33.831Z,8.42
2018-03-22T09:19:14.259Z,8.4
2018-03-22T09:19:54.738Z,8.37
2018-03-22T09:20:36.178Z,8.39
2018-03-22T09:21:17.379Z,8.37
2018-03-22T09:21:57.885Z,8.39
2018-03-22T09:22:38.294Z,8.34
2018-03-22T09:23:18.807Z,8.32
2018-03-22T09:23:59.199Z,8.36
2018-03-22T09:24:39.681Z,8.27
2018-03-22T09:25:20.181Z,8.36
2018-03-22T09:26:01.161Z,8.31
2018-03-22T09:26:41.976Z,8.32
2018-03-22T09:27:22.985Z,8.36
2018-03-22T09:28:03.405Z,8.39
2018-03-22T09:28:43.851Z,8.47
2018-03-22T09:29:24.248Z,8.52
2018-03-22T09:30:04.737Z,8.61
2018-03-22T09:30:45.185Z,8.63
2018-03-22T09:31:25.549Z,8.7
2018-03-22T09:32:06.827Z,8.76
2018-03-22T09:32:48.105Z,8.78
2018-03-22T09:33:28.286Z,8.75
2018-03-22T09:34:09.695Z,8.73
2018-03-22T09:34:50.179Z,8.71
2018-03-22T09:35:34.064Z,8.65
2018-03-22T09:36:15.318Z,8.73
2018-03-22T09:36:55.695Z,8.67
2018-03-22T09:37:36.828Z,8.63
2018-03-22T09:38:17.406Z,8.58
2018-03-22T09:38:58.827Z,8.52
2018-03-22T09:39:39.524Z,8.58
2018-03-22T09:40:19.733Z,8.6
2018-03-22T09:41:01.198Z,8.52
2018-03-22T09:41:41.591Z,8.47
2018-03-22T09:42:22.022Z,8.5
2018-03-22T09:43:02.475Z,8.46
2018-03-22T09:43:42.981Z,8.54
2018-03-22T09:44:23.419Z,8.6
2018-03-22T09:45:05.978Z,8.78
2018-03-22T09:45:46.329Z,8.7
2018-03-22T09:46:26.777Z,8.79
2018-03-22T09:47:08.090Z,8.78
2018-03-22T09:47:48.764Z,8.85
2018-03-22T09:48:30.425Z,8.98
2018-03-22T09:49:11.315Z,9.01
2018-03-22T09:49:51.404Z,8.97
2018-03-22T09:50:32.714Z,9.06
2018-03-22T09:51:13.288Z,8.98
2018-03-22T09:51:54.890Z,8.91
2018-03-22T09:52:36.204Z,8.98
2018-03-22T09:53:16.662Z,9.13
2018-03-22T09:53:57.771Z,9.1
2018-03-22T09:54:41.193Z,8.93
2018-03-22T09:55:21.738Z,8.91
2018-03-22T09:56:03.217Z,8.71
2018-03-22T09:56:42.855Z,8.78
2018-03-22T09:57:24.618Z,8.65
2018-03-22T09:58:05.108Z,8.7
2018-03-22T09:58:44.607Z,8.64
2018-03-22T09:59:25.646Z,8.75
2018-03-22T10:00:06.187Z,8.76
2018-03-22T10:00:46.943Z,8.75
2018-03-22T10:01:27.640Z,8.76
2018-03-22T10:02:09.086Z,8.78
2018-03-22T10:02:49.656Z,8.94
2018-03-22T10:03:33.251Z,8.96
2018-03-22T10:04:15.618Z,8.98
2018-03-22T10:04:56.877Z,8.91
2018-03-22T10:05:37.780Z,8.79